createdAt,value
2019-01-27T00:00:51.296Z,3.40
2019-01-27T00:05:56.471Z,3.30
2019-01-27T00:11:01.140Z,3.20
2019-01-27T00:16:06.437Z,3.30
2019-01-27T00:21:11.480Z,3.30
2019-01-27T00:26:16.077Z,3.30
2019-01-27T00:31:20.511Z,3.20
2019-01-27T00:36:26.446Z,3.10
2019-01-27T00:41:31.003Z,3.10
2019-01-27T00:46:35.599Z,3.10
2019-01-27T00:51:40.463Z,3.10
2019-01-27T00:56:46.705Z,3.00
2019-01-27T01:01:51.028Z,3.00
2019-01-27T01:06:55.503Z,3.00
2019-01-27T01:12:01.916Z,3.10
2019-01-27T01:17:06.448Z,3.10
2019-01-27T01:22:10.799Z,3.10
2019-01-27T01:27:15.705Z,3.10
2019-01-27T01:32:20.100Z,3.00
2019-01-27T01:37:25.711Z,2.90
2019-01-27T01:42:31.316Z,3.00
2019-01-27T01:47:36.070Z,2.90
2019-01-27T01:52:41.445Z,2.90
2019-01-27T01:57:47.164Z,2.90
2019-01-27T02:02:51.728Z,2.70
2019-01-27T02:07:56.418Z,2.50
2019-01-27T02:13:00.797Z,2.40
2019-01-27T02:18:05.311Z,2.40
2019-01-27T02:23:10.120Z,2.40
2019-01-27T02:28:14.660Z,2.60
2019-01-27T02:33:19.173Z,2.80
2019-01-27T02:38:26.555Z,2.80
2019-01-27T02:43:31.427Z,2.90
2019-01-27T02:48:36.108Z,3.10
2019-01-27T02:53:41.034Z,3.30
2019-01-27T02:58:45.648Z,3.50
2019-01-27T03:03:50.182Z,3.50
2019-01-27T03:09:06.449Z,3.60
2019-01-27T03:14:11.212Z,3.70
2019-01-27T03:19:15.605Z,3.60
2019-01-27T03:24:21.013Z,3.70
2019-01-27T03:29:25.845Z,3.70
2019-01-27T03:34:31.000Z,3.60
2019-01-27T03:39:35.570Z,3.90
2019-01-27T03:44:41.704Z,4.20
2019-01-27T03:49:46.034Z,4.10
2019-01-27T03:54:50.398Z,4.20
2019-01-27T03:59:55.551Z,4.10
2019-01-27T04:05:00.600Z,4.10
2019-01-27T04:10:09.064Z,4.10
2019-01-27T04:15:14.823Z,4.20
2019-01-27T04:20:20.723Z,4.30
2019-01-27T04:25:25.496Z,4.30
2019-01-27T04:30:32.487Z,4.20
2019-01-27T04:35:38.225Z,4.20
2019-01-27T04:40:42.710Z,4.20
2019-01-27T04:45:47.485Z,4.20
2019-01-27T04:50:52.523Z,4.10
2019-01-27T04:55:59.938Z,3.80
2019-01-27T05:01:05.145Z,3.60
2019-01-27T05:06:10.798Z,3.40
2019-01-27T05:11:17.274Z,3.40
2019-01-27T05:16:22.516Z,3.40
2019-01-27T05:21:27.372Z,3.50
2019-01-27T05:26:32.484Z,3.70
2019-01-27T05:31:37.009Z,3.80
2019-01-27T05:36:41.540Z,3.80
2019-01-27T05:41:46.774Z,3.90
2019-01-27T05:46:51.125Z,4.00
2019-01-27T05:51:58.774Z,4.20
2019-01-27T05:57:03.167Z,4.10
2019-01-27T06:02:07.565Z,4.10
2019-01-27T06:07:12.404Z,4.20
2019-01-27T06:12:16.940Z,4.10
2019-01-27T06:17:21.548Z,4.10
2019-01-27T06:22:28.103Z,4.00
2019-01-27T06:27:35.450Z,4.00
2019-01-27T06:32:52.207Z,4.00
2019-01-27T06:37:58.578Z,4.00
2019-01-27T06:43:03.048Z,4.10
2019-01-27T06:48:09.449Z,4.10
2019-01-27T06:53:14.548Z,4.10
2019-01-27T06:58:19.278Z,4.00
2019-01-27T07:03:30.552Z,4.00
2019-01-27T07:08:54.583Z,3.90
2019-01-27T07:14:20.849Z,3.90
2019-01-27T07:19:52.485Z,3.90
2019-01-27T07:25:25.155Z,3.90
2019-01-27T07:30:58.108Z,4.00
2019-01-27T07:42:03.619Z,4.00
2019-01-27T07:47:37.786Z,4.10
2019-01-27T07:52:52.927Z,4.30
2019-01-27T07:58:14.235Z,4.40
2019-01-27T08:03:38.293Z,4.50
2019-01-27T08:09:04.925Z,4.60
2019-01-27T08:14:31.517Z,4.70
2019-01-27T08:20:01.780Z,4.70
2019-01-27T08:25:28.404Z,4.80
2019-01-27T08:30:58.284Z,4.90
2019-01-27T08:36:16.382Z,5.30
2019-01-27T08:41:42.825Z,5.50
2019-01-27T08:46:59.920Z,5.90
2019-01-27T08:52:04.803Z,5.40
2019-01-27T08:57:09.362Z,5.30
2019-01-27T09:02:35.935Z,5.40
2019-01-27T09:07:59.208Z,5.70
2019-01-27T09:13:24.676Z,5.70
2019-01-27T09:19:03.398Z,6.00
2019-01-27T09:24:36.296Z,6.70
2019-01-27T09:29:48.972Z,6.30
2019-01-27T09:35:19.483Z,6.00
2019-01-27T09:40:39.731Z,6.10
2019-01-27T09:46:05.502Z,6.40
2019-01-27T09:51:25.828Z,6.50
2019-01-27T09:56:50.613Z,6.80
2019-01-27T10:02:17.095Z,7.50
2019-01-27T10:07:43.206Z,7.70
2019-01-27T10:13:14.181Z,7.20
2019-01-27T10:18:37.860Z,6.70
2019-01-27T10:24:02.900Z,6.70
2019-01-27T10:29:21.997Z,6.70
2019-01-27T10:35:06.155Z,6.50
2019-01-27T10:40:22.777Z,6.70
2019-01-27T10:45:55.945Z,6.80
2019-01-27T10:51:19.254Z,6.90
2019-01-27T10:56:44.439Z,7.10
2019-01-27T11:02:02.703Z,7.20
2019-01-27T11:07:15.740Z,7.00
2019-01-27T11:12:42.431Z,7.10
2019-01-27T11:18:15.464Z,7.30
2019-01-27T11:23:42.529Z,7.50
2019-01-27T11:29:07.965Z,7.80
2019-01-27T11:34:29.740Z,7.80
2019-01-27T11:39:57.009Z,8.10
2019-01-27T11:45:17.710Z,8.80
2019-01-27T11:50:38.758Z,8.50
2019-01-27T11:55:44.283Z,8.90
2019-01-27T12:00:53.824Z,9.00
2019-01-27T12:05:59.176Z,8.60
2019-01-27T12:11:07.063Z,8.50
2019-01-27T12:16:11.589Z,8.30
2019-01-27T12:21:17.199Z,8.40
2019-01-27T12:26:22.919Z,8.40
2019-01-27T12:31:37.343Z,8.10
2019-01-27T12:36:47.776Z,7.80
2019-01-27T12:41:55.451Z,7.60
2019-01-27T12:47:00.487Z,7.80
2019-01-27T12:52:07.204Z,8.00
2019-01-27T12:57:12.105Z,7.90
2019-01-27T13:02:21.825Z,8.00
2019-01-27T13:07:28.079Z,7.90
2019-01-27T13:12:37.915Z,8.20
2019-01-27T13:17:43.734Z,8.20
2019-01-27T13:22:49.289Z,8.90
2019-01-27T13:27:55.589Z,9.10
2019-01-27T13:33:03.258Z,9.20
2019-01-27T13:38:08.017Z,8.80
2019-01-27T13:43:14.168Z,8.60
2019-01-27T13:48:23.045Z,8.40
2019-01-27T13:53:27.672Z,8.30
2019-01-27T13:58:39.335Z,8.30
2019-01-27T14:03:46.425Z,8.00
2019-01-27T14:08:59.447Z,7.90
2019-01-27T14:14:05.449Z,7.50
2019-01-27T14:19:12.167Z,7.40
2019-01-27T14:24:17.817Z,7.40
2019-01-27T14:29:22.426Z,7.40
2019-01-27T14:34:26.968Z,7.40
2019-01-27T14:39:34.761Z,7.20
2019-01-27T14:44:41.754Z,7.10
2019-01-27T14:49:54.613Z,7.10
2019-01-27T14:55:01.699Z,7.00
2019-01-27T15:00:09.917Z,6.90
2019-01-27T15:05:17.565Z,6.70
2019-01-27T15:10:22.977Z,6.60
2019-01-27T15:15:30.065Z,6.40
2019-01-27T15:20:38.372Z,6.40
2019-01-27T15:25:43.930Z,6.30
2019-01-27T15:30:49.027Z,6.20
2019-01-27T15:35:54.685Z,5.90
2019-01-27T15:41:02.028Z,5.80
2019-01-27T15:46:07.129Z,5.70
2019-01-27T15:51:11.512Z,5.80
2019-01-27T15:56:19.157Z,5.80
2019-01-27T16:01:24.334Z,5.70
2019-01-27T16:06:29.546Z,5.70
2019-01-27T16:11:37.846Z,5.40
2019-01-27T16:16:42.936Z,5.30
2019-01-27T16:21:47.628Z,5.10
2019-01-27T16:26:54.022Z,4.90
2019-01-27T16:32:06.428Z,4.80
2019-01-27T16:37:14.337Z,4.70
2019-01-27T16:42:22.197Z,4.70
2019-01-27T16:47:28.470Z,4.60
2019-01-27T16:52:34.184Z,4.60
2019-01-27T16:57:41.409Z,4.60
2019-01-27T17:02:48.594Z,4.50
2019-01-27T17:07:57.992Z,4.50
2019-01-27T17:13:03.088Z,4.30
2019-01-27T17:18:17.625Z,4.40
2019-01-27T17:23:23.888Z,4.50
2019-01-27T17:28:33.070Z,4.50
2019-01-27T17:33:38.997Z,4.40
2019-01-27T17:38:45.467Z,4.40
2019-01-27T17:43:52.356Z,4.40
2019-01-27T17:48:57.532Z,4.40
2019-01-27T17:54:05.940Z,4.30
2019-01-27T17:59:27.241Z,4.20
2019-01-27T18:04:54.985Z,4.20
2019-01-27T18:10:12.285Z,4.10
2019-01-27T18:15:18.493Z,3.90
2019-01-27T18:20:24.058Z,3.80
2019-01-27T18:25:31.371Z,3.60
2019-01-27T18:30:36.851Z,3.50
2019-01-27T18:35:43.723Z,3.40
2019-01-27T18:40:56.972Z,3.30
2019-01-27T18:46:04.522Z,3.30
2019-01-27T18:51:11.029Z,3.40
2019-01-27T18:56:42.921Z,3.40
2019-01-27T19:02:13.218Z,3.50
2019-01-27T19:07:28.927Z,3.50
2019-01-27T19:12:43.253Z,3.60
2019-01-27T19:18:13.601Z,3.60
2019-01-27T19:23:32.731Z,3.60
2019-01-27T19:29:05.948Z,3.50
2019-01-27T19:34:46.343Z,3.40
2019-01-27T19:40:18.900Z,3.40
2019-01-27T19:45:43.429Z,3.40
2019-01-27T19:51:17.882Z,3.30
2019-01-27T19:56:38.441Z,3.40
2019-01-27T20:02:05.379Z,3.40
2019-01-27T20:07:35.383Z,3.50
2019-01-27T20:13:10.654Z,3.50
2019-01-27T20:18:41.022Z,3.40
2019-01-27T20:24:09.293Z,3.30
2019-01-27T20:29:35.789Z,3.20
2019-01-27T20:35:14.923Z,3.20
2019-01-27T20:40:38.919Z,3.00
2019-01-27T20:45:52.075Z,3.00
2019-01-27T20:51:21.732Z,2.90
2019-01-27T20:56:36.494Z,2.80
2019-01-27T21:01:50.609Z,2.70
2019-01-27T21:07:13.474Z,2.50
2019-01-27T21:12:56.110Z,2.40
2019-01-27T21:18:25.633Z,2.40
2019-01-27T21:23:30.862Z,2.30
2019-01-27T21:28:36.749Z,2.30
2019-01-27T21:33:42.573Z,2.20
2019-01-27T21:38:47.616Z,2.20
2019-01-27T21:44:01.011Z,2.00
2019-01-27T21:49:07.900Z,1.90
2019-01-27T21:54:13.468Z,1.80
2019-01-27T21:59:20.677Z,1.80
2019-01-27T22:04:25.808Z,1.70
2019-01-27T22:09:36.150Z,1.70
2019-01-27T22:14:43.563Z,1.60
2019-01-27T22:19:48.705Z,1.50
2019-01-27T22:24:53.184Z,1.60
2019-01-27T22:29:58.033Z,1.50
2019-01-27T22:35:02.549Z,1.50
2019-01-27T22:40:08.149Z,1.50
2019-01-27T22:45:19.124Z,1.50
2019-01-27T22:50:24.405Z,1.50
2019-01-27T22:55:31.843Z,1.40
2019-01-27T23:00:58.683Z,1.40
2019-01-27T23:06:03.646Z,1.40
2019-01-27T23:11:08.700Z,1.40
2019-01-27T23:16:14.387Z,1.30
2019-01-27T23:21:18.899Z,1.30
2019-01-27T23:26:24.529Z,1.20
2019-01-27T23:31:28.906Z,1.20
2019-01-27T23:36:33.786Z,1.10
2019-01-27T23:41:40.956Z,1.10
2019-01-27T23:46:46.160Z,1.10
2019-01-27T23:51:51.550Z,1.10
2019-01-27T23:56:56.311Z,1.10
